Time;durP1;ratioP1;P1;durP2;ratioP2;P2;SDS_P1;SDS_P2;PMS_P1;PMS_P2;Temp;Humidity;BMP_temperature;BMP_pressure;BME280_temperature;BME280_humidity;BME280_pressure;Samples;Min_cycle;Max_cycle;Signal;HPM_P1;HPM_P2
2023/07/02 00:01:21;;;;;;;8.15;3.38;;;;;;;-144.73;100.00;54500.06;5001693;28;20076;-75
2023/07/02 00:03:46;;;;;;;13.35;3.47;;;;;;;-144.73;100.00;54545.22;5022766;28;20026;-75
2023/07/02 00:06:11;;;;;;;10.18;3.28;;;;;;;-144.73;100.00;54514.44;5029807;28;20079;-75
2023/07/02 00:08:37;;;;;;;13.98;3.72;;;;;;;-144.73;100.00;54522.63;5014062;28;20021;-75
2023/07/02 00:11:02;;;;;;;12.35;3.72;;;;;;;-144.73;100.00;54493.91;5031064;28;20370;-75
2023/07/02 00:13:28;;;;;;;9.38;3.30;;;;;;;-144.73;100.00;54518.53;5022654;28;20060;-76
2023/07/02 00:15:53;;;;;;;10.02;3.13;;;;;;;-144.73;100.00;54530.84;5014016;28;20036;-76
2023/07/02 00:18:18;;;;;;;12.25;3.58;;;;;;;-144.73;100.00;54504.16;5028172;28;20022;-76
2023/07/02 00:20:44;;;;;;;11.70;3.50;;;;;;;-144.73;100.00;54489.81;5017323;28;20549;-76
2023/07/02 00:23:09;;;;;;;15.30;3.53;;;;;;;-144.73;100.00;54483.66;5013322;28;20033;-76
2023/07/02 00:25:36;;;;;;;12.48;3.85;;;;;;;-144.73;100.00;54498.00;5029587;28;20071;-76
2023/07/02 00:28:02;;;;;;;14.52;3.42;;;;;;;-144.73;100.00;54483.66;5027810;28;20072;-75
2023/07/02 00:30:27;;;;;;;8.38;3.53;;;;;;;-144.73;100.00;54506.22;5012511;28;20046;-76
2023/07/02 00:32:53;;;;;;;18.58;4.53;;;;;;;-144.73;100.00;54481.59;5030411;28;20021;-75
2023/07/02 00:35:18;;;;;;;12.82;3.70;;;;;;;-144.73;100.00;54485.69;5015977;28;20030;-75
2023/07/02 00:37:44;;;;;;;14.20;3.95;;;;;;;-144.73;100.00;54508.28;5006420;28;20029;-76
2023/07/02 00:40:09;;;;;;;16.58;4.25;;;;;;;-144.73;100.00;54512.38;5006135;28;20093;-75
2023/07/02 00:42:38;;;;;;;15.55;3.90;;;;;;;-144.73;100.00;54506.22;4997670;28;20018;-76
2023/07/02 00:45:04;;;;;;;19.05;3.97;;;;;;;-144.73;100.00;54504.16;5000306;28;20090;-76
2023/07/02 00:47:33;;;;;;;20.45;3.63;;;;;;;-144.73;100.00;54547.28;5030796;28;20017;-76
2023/07/02 00:49:59;;;;;;;15.15;3.92;;;;;;;-144.73;100.00;54489.81;5009289;28;20030;-77
2023/07/02 00:52:26;;;;;;;19.50;4.45;;;;;;;-144.73;100.00;54489.81;5007537;28;20033;-76
2023/07/02 00:54:51;;;;;;;12.77;3.75;;;;;;;-144.73;100.00;54514.44;5004398;28;20030;-76
2023/07/02 00:57:17;;;;;;;17.33;4.10;;;;;;;-144.73;100.00;54493.91;5009580;28;20017;-77
2023/07/02 00:59:42;;;;;;;10.88;3.58;;;;;;;-144.73;100.00;54512.38;5028006;28;20520;-76
2023/07/02 01:02:08;;;;;;;18.17;4.55;;;;;;;-144.73;100.00;54530.84;5028755;28;20076;-76
2023/07/02 01:04:33;;;;;;;19.35;3.88;;;;;;;-144.73;100.00;54506.22;5005304;28;20083;-76
2023/07/02 01:06:58;;;;;;;13.70;4.30;;;;;;;-144.73;100.00;54539.06;5029178;28;20009;-76
2023/07/02 01:09:27;;;;;;;12.05;4.88;;;;;;;-144.73;100.00;54502.13;5012025;28;20062;-76
2023/07/02 01:11:58;;;;;;;15.43;3.60;;;;;;;-144.73;100.00;54506.22;5029612;28;20103;-76
2023/07/02 01:14:45;;;;;;;10.70;3.38;;;;;;;-144.73;100.00;54530.84;5028460;28;20038;-76
2023/07/02 01:17:10;;;;;;;24.95;5.05;;;;;;;-144.73;100.00;54498.00;5024484;28;20242;-76
2023/07/02 01:19:41;;;;;;;17.70;4.35;;;;;;;-144.73;100.00;54510.31;5025461;28;20042;-76
2023/07/02 01:22:08;;;;;;;16.17;4.43;;;;;;;-144.73;100.00;54518.53;5007935;28;20017;-76
2023/07/02 01:24:34;;;;;;;16.42;3.97;;;;;;;-144.73;100.00;54502.13;5028080;28;20032;-76
2023/07/02 01:27:01;;;;;;;18.40;4.57;;;;;;;-144.73;100.00;54543.16;5009657;28;20013;-76
2023/07/02 01:29:29;;;;;;;13.02;4.18;;;;;;;-144.73;100.00;54485.69;5010590;28;20017;-76
2023/07/02 01:31:54;;;;;;;16.08;4.38;;;;;;;-144.73;100.00;54465.16;5011815;28;20032;-76
2023/07/02 01:34:20;;;;;;;15.32;4.80;;;;;;;-144.73;100.00;54514.44;5028791;28;20390;-76
2023/07/02 01:36:45;;;;;;;16.92;4.50;;;;;;;-144.73;100.00;54510.31;5012402;28;20053;-75
2023/07/02 01:39:11;;;;;;;18.67;4.43;;;;;;;-144.73;100.00;54485.69;5012571;28;20033;-75
2023/07/02 01:41:49;;;;;;;12.15;4.13;;;;;;;-144.73;100.00;54493.91;5027646;28;20052;-77
2023/07/02 01:44:14;;;;;;;9.38;4.65;;;;;;;-144.73;100.00;54477.47;5012371;28;20018;-77
2023/07/02 01:46:40;;;;;;;15.23;4.35;;;;;;;-144.73;100.00;54502.13;5009913;28;20022;-76
2023/07/02 01:49:05;;;;;;;15.50;4.82;;;;;;;-144.73;100.00;54502.13;5009143;28;20121;-76
2023/07/02 01:51:30;;;;;;;21.23;4.35;;;;;;;-144.73;100.00;54518.53;5010184;28;20120;-75
2023/07/02 01:53:56;;;;;;;14.02;4.57;;;;;;;-144.73;100.00;54510.31;5029425;28;20017;-76
2023/07/02 01:56:21;;;;;;;19.80;4.40;;;;;;;-144.73;100.00;54516.47;5026543;28;20092;-76
2023/07/02 01:58:46;;;;;;;18.52;4.82;;;;;;;-144.73;100.00;54506.22;5028279;28;20063;-76
2023/07/02 02:01:12;;;;;;;25.02;5.07;;;;;;;-144.73;100.00;54508.28;5011431;28;20453;-76
2023/07/02 02:03:37;;;;;;;11.73;4.07;;;;;;;-144.73;100.00;54510.31;5027565;28;20025;-76
2023/07/02 02:06:02;;;;;;;11.93;4.75;;;;;;;-144.73;100.00;54510.31;5012225;28;20034;-75
2023/07/02 02:08:28;;;;;;;13.40;4.20;;;;;;;-144.73;100.00;54508.28;5010602;28;20033;-76
2023/07/02 02:10:53;;;;;;;13.57;4.38;;;;;;;-144.73;100.00;54516.47;5007365;28;20061;-74
2023/07/02 02:13:18;;;;;;;16.35;5.13;;;;;;;-144.73;100.00;54502.13;5009948;28;20108;-75
2023/07/02 02:15:44;;;;;;;12.93;4.95;;;;;;;-144.73;100.00;54518.53;5010315;28;20047;-75
2023/07/02 02:18:09;;;;;;;15.10;5.50;;;;;;;-144.73;100.00;54506.22;5009514;28;20202;-75
2023/07/02 02:20:35;;;;;;;20.52;5.00;;;;;;;-144.73;100.00;54475.44;5014721;28;20056;-75
2023/07/02 02:23:00;;;;;;;12.38;3.95;;;;;;;-144.73;100.00;54518.53;5011101;28;20017;-75
2023/07/02 02:25:25;;;;;;;25.42;5.13;;;;;;;-144.73;100.00;54543.16;5028509;28;20036;-75
2023/07/02 02:27:51;;;;;;;18.70;5.38;;;;;;;-144.73;100.00;54493.91;5011495;28;20022;-75
2023/07/02 02:30:16;;;;;;;15.80;4.60;;;;;;;-144.73;100.00;54518.53;5010676;28;20033;-75
2023/07/02 02:32:41;;;;;;;17.63;4.55;;;;;;;-144.73;100.00;54493.91;5010829;28;20017;-75
2023/07/02 02:35:08;;;;;;;17.63;5.32;;;;;;;-144.73;100.00;54493.91;5011427;28;20087;-76
2023/07/02 02:37:35;;;;;;;24.30;6.13;;;;;;;-144.73;100.00;54539.06;5028931;28;20104;-75
2023/07/02 02:40:00;;;;;;;20.10;5.35;;;;;;;-144.73;100.00;54518.53;5021984;28;20029;-75
2023/07/02 02:42:26;;;;;;;18.92;4.90;;;;;;;-144.73;100.00;54539.06;5009788;28;20032;-75
2023/07/02 02:44:51;;;;;;;14.18;4.82;;;;;;;-144.73;100.00;54530.84;5033649;28;20029;-75
2023/07/02 02:47:16;;;;;;;13.10;4.85;;;;;;;-144.73;100.00;54522.63;5019017;28;20029;-75
2023/07/02 02:49:42;;;;;;;14.77;5.90;;;;;;;-144.73;100.00;54539.06;5027147;28;20034;-75
2023/07/02 02:52:07;;;;;;;21.90;5.95;;;;;;;-144.73;100.00;54477.47;5025963;28;20028;-76
2023/07/02 02:54:33;;;;;;;19.67;5.32;;;;;;;-144.73;100.00;54530.84;5014832;28;20113;-74
2023/07/02 02:56:58;;;;;;;18.73;5.85;;;;;;;-144.73;100.00;54506.22;5011299;28;20025;-75
2023/07/02 02:59:23;;;;;;;22.25;4.72;;;;;;;-144.73;100.00;54506.22;5027443;28;20029;-75
2023/07/02 03:01:50;;;;;;;14.43;5.10;;;;;;;-144.73;100.00;54498.00;5007023;28;20028;-74
2023/07/02 03:04:15;;;;;;;14.65;5.47;;;;;;;-144.73;100.00;54506.22;5013801;28;20089;-74
2023/07/02 03:06:40;;;;;;;18.40;5.53;;;;;;;-144.73;100.00;54469.28;5010102;28;20121;-74
2023/07/02 03:09:06;;;;;;;15.23;5.57;;;;;;;-144.73;100.00;54514.44;5029276;28;20025;-74
2023/07/02 03:11:31;;;;;;;22.05;5.00;;;;;;;-144.73;100.00;54510.31;5027650;28;20039;-74
2023/07/02 03:13:56;;;;;;;21.65;6.13;;;;;;;-144.73;100.00;54518.53;5007796;28;20018;-74
2023/07/02 03:16:22;;;;;;;14.70;6.47;;;;;;;-144.73;100.00;54514.44;5009975;28;20116;-74
2023/07/02 03:18:47;;;;;;;16.58;5.38;;;;;;;-144.73;100.00;54510.31;5021375;28;20183;-75
2023/07/02 03:21:13;;;;;;;16.00;5.90;;;;;;;-144.73;100.00;54481.59;5018487;28;20042;-74
2023/07/02 03:23:38;;;;;;;20.92;5.95;;;;;;;-144.73;100.00;54547.28;5009080;28;20026;-74
2023/07/02 03:26:03;;;;;;;20.27;6.03;;;;;;;-144.73;100.00;54506.22;5016549;28;20025;-74
2023/07/02 03:28:29;;;;;;;19.02;6.60;;;;;;;-144.73;100.00;54510.31;5019425;28;20497;-74
2023/07/02 03:30:54;;;;;;;20.05;6.90;;;;;;;-144.73;100.00;54502.13;5018325;28;20104;-74
2023/07/02 03:33:19;;;;;;;21.15;6.75;;;;;;;-144.73;100.00;54604.75;5031157;28;20502;-74
2023/07/02 03:35:45;;;;;;;24.77;6.40;;;;;;;-144.73;100.00;54485.69;5022570;28;20776;-74
2023/07/02 03:38:10;;;;;;;19.73;6.35;;;;;;;-144.73;100.00;54473.38;5025362;28;20088;-76
2023/07/02 03:40:35;;;;;;;26.42;6.20;;;;;;;-144.73;100.00;54539.06;5001311;28;20053;-74
2023/07/02 03:43:01;;;;;;;19.45;7.82;;;;;;;-144.73;100.00;54563.69;5004659;28;20079;-74
2023/07/02 03:45:26;;;;;;;21.75;6.70;;;;;;;-144.73;100.00;54543.16;5027239;28;20087;-74
2023/07/02 03:47:52;;;;;;;23.65;6.15;;;;;;;-144.73;100.00;54498.00;5010837;28;20072;-74
2023/07/02 03:50:17;;;;;;;25.92;6.80;;;;;;;-144.73;100.00;54565.75;5010948;28;20033;-74
2023/07/02 03:52:43;;;;;;;24.17;6.47;;;;;;;-144.73;100.00;54502.13;5010191;28;20026;-74
2023/07/02 03:55:08;;;;;;;20.55;6.25;;;;;;;-144.73;100.00;54530.84;5021081;28;20069;-74
2023/07/02 03:57:33;;;;;;;28.45;8.48;;;;;;;-144.73;100.00;54506.22;5014577;28;20030;-75
2023/07/02 03:59:59;;;;;;;20.77;7.05;;;;;;;-144.73;100.00;54539.06;5026277;28;20030;-74
2023/07/02 04:02:24;;;;;;;25.52;6.97;;;;;;;-144.73;100.00;54522.63;5011941;28;20064;-74
2023/07/02 04:04:49;;;;;;;27.00;8.00;;;;;;;-144.73;100.00;54498.00;5043412;28;20029;-74
2023/07/02 04:07:15;;;;;;;29.85;8.65;;;;;;;-144.73;100.00;54522.63;5023601;28;20025;-74
2023/07/02 04:09:41;;;;;;;21.70;6.60;;;;;;;-144.73;100.00;54498.00;5020629;28;20037;-74
2023/07/02 04:12:07;;;;;;;23.90;7.47;;;;;;;-144.73;100.00;54510.31;5014758;28;20177;-74
2023/07/02 04:14:32;;;;;;;22.52;7.18;;;;;;;-144.73;100.00;54514.44;5032562;28;20108;-75
2023/07/02 04:16:57;;;;;;;23.75;6.90;;;;;;;-144.73;100.00;54516.47;5011099;28;20020;-73
2023/07/02 04:19:23;;;;;;;26.48;8.13;;;;;;;-144.73;100.00;54522.63;5023873;28;20047;-74
2023/07/02 04:21:48;;;;;;;28.52;6.88;;;;;;;-144.73;100.00;54518.53;5018086;28;20032;-75
2023/07/02 04:24:13;;;;;;;26.63;7.40;;;;;;;-144.73;100.00;54469.28;5013781;28;20064;-73
2023/07/02 04:26:42;;;;;;;34.13;8.57;;;;;;;-144.73;100.00;54545.22;5011230;28;20088;-74
2023/07/02 04:29:11;;;;;;;29.98;7.82;;;;;;;-144.73;100.00;54530.84;5029589;28;20100;-74
2023/07/02 04:31:36;;;;;;;32.92;7.85;;;;;;;-144.73;100.00;54508.28;5010780;28;20038;-74
2023/07/02 04:34:03;;;;;;;25.45;7.22;;;;;;;-144.73;100.00;54547.28;5030206;28;20108;-75
2023/07/02 04:36:28;;;;;;;33.83;7.45;;;;;;;-144.73;100.00;54498.00;5009348;28;20029;-74
2023/07/02 04:38:54;;;;;;;25.70;7.60;;;;;;;-144.73;100.00;54502.13;5013734;28;20026;-75
2023/07/02 04:41:19;;;;;;;29.02;7.40;;;;;;;-144.73;100.00;54489.81;5028947;28;20086;-74
2023/07/02 04:43:45;;;;;;;37.65;7.93;;;;;;;-144.73;100.00;54522.63;5012404;28;20033;-74
2023/07/02 04:46:12;;;;;;;33.30;8.45;;;;;;;-144.73;100.00;54498.00;5028886;28;20087;-74
2023/07/02 04:48:38;;;;;;;26.25;8.65;;;;;;;-144.73;100.00;54500.06;5028945;28;20021;-75
2023/07/02 04:51:03;;;;;;;31.33;8.70;;;;;;;-144.73;100.00;54543.16;5028893;28;20032;-75
2023/07/02 04:53:28;;;;;;;32.95;9.27;;;;;;;-144.73;100.00;54514.44;5030885;28;20364;-74
2023/07/02 04:55:54;;;;;;;21.58;8.25;;;;;;;-144.73;100.00;54473.38;5012375;28;20033;-74
2023/07/02 04:58:20;;;;;;;39.67;8.20;;;;;;;-144.73;100.00;54526.75;5012458;28;20029;-74
2023/07/02 05:00:45;;;;;;;34.25;9.13;;;;;;;-144.73;100.00;54489.81;5028169;28;20034;-74
2023/07/02 05:03:10;;;;;;;29.30;7.97;;;;;;;-144.73;100.00;54487.75;5012574;28;20033;-74
2023/07/02 05:05:36;;;;;;;26.27;8.60;;;;;;;-144.73;100.00;54500.06;5009576;28;20505;-74
2023/07/02 05:08:01;;;;;;;35.47;9.30;;;;;;;-144.73;100.00;54504.16;5009768;28;20029;-74
2023/07/02 05:10:26;;;;;;;35.97;9.23;;;;;;;-144.73;100.00;54528.81;5028768;28;20030;-75
2023/07/02 05:12:52;;;;;;;30.75;9.02;;;;;;;-144.73;100.00;54502.13;5028539;28;20397;-74
2023/07/02 05:15:17;;;;;;;31.05;8.38;;;;;;;-144.73;100.00;54539.06;5028432;28;20041;-74
2023/07/02 05:17:43;;;;;;;29.92;8.65;;;;;;;-144.73;100.00;54506.22;5012484;28;20036;-74
2023/07/02 05:20:09;;;;;;;32.22;8.82;;;;;;;-144.73;100.00;54510.31;5028846;28;20033;-74
2023/07/02 05:22:34;;;;;;;34.17;9.43;;;;;;;-144.73;100.00;54541.13;5005714;28;20045;-74
2023/07/02 05:24:59;;;;;;;30.92;9.18;;;;;;;-144.73;100.00;54498.00;5029767;28;20056;-74
2023/07/02 05:27:25;;;;;;;30.63;8.63;;;;;;;-144.73;100.00;54526.75;5012228;28;20030;-74
2023/07/02 05:29:50;;;;;;;26.63;8.55;;;;;;;-144.73;100.00;54502.13;5011604;28;20501;-74
2023/07/02 05:32:16;;;;;;;34.58;9.52;;;;;;;-144.73;100.00;54481.59;5028863;28;20112;-74
2023/07/02 05:34:41;;;;;;;29.05;8.93;;;;;;;-144.73;100.00;54498.00;5010910;28;20033;-75
2023/07/02 05:37:06;;;;;;;37.05;10.23;;;;;;;-144.73;100.00;54518.53;5009739;28;20024;-74
2023/07/02 05:39:33;;;;;;;34.63;9.43;;;;;;;-144.73;100.00;54514.44;5011854;28;20533;-74
2023/07/02 05:41:59;;;;;;;37.03;11.20;;;;;;;-144.73;100.00;54493.91;5028800;28;20031;-73
2023/07/02 05:44:24;;;;;;;34.15;10.18;;;;;;;-144.73;100.00;54518.53;5013282;28;20041;-74
2023/07/02 05:46:49;;;;;;;35.70;10.00;;;;;;;-144.73;100.00;54510.31;5021088;28;20046;-74
2023/07/02 05:49:15;;;;;;;34.40;11.25;;;;;;;-144.73;100.00;54485.69;5007919;28;20025;-74
2023/07/02 05:51:40;;;;;;;34.88;10.35;;;;;;;-144.73;100.00;54498.00;5003262;28;20164;-75
2023/07/02 05:54:06;;;;;;;41.17;9.57;;;;;;;-144.73;100.00;54539.06;5011839;28;20018;-72
2023/07/02 05:56:31;;;;;;;38.85;10.25;;;;;;;-144.73;100.00;54510.31;5029023;28;20045;-73
2023/07/02 05:58:57;;;;;;;40.88;10.52;;;;;;;-144.73;100.00;54498.00;5011938;28;20017;-73
2023/07/02 06:01:22;;;;;;;35.28;11.20;;;;;;;-144.73;100.00;54506.22;5027652;28;20029;-73
2023/07/02 06:03:49;;;;;;;42.53;11.02;;;;;;;-144.73;100.00;54506.22;5011383;28;20017;-73
2023/07/02 06:06:15;;;;;;;24.02;9.32;;;;;;;-144.73;100.00;54514.44;5011398;28;20021;-73
2023/07/02 06:08:40;;;;;;;43.28;10.48;;;;;;;-144.73;100.00;54485.69;5012937;28;20033;-73
2023/07/02 06:11:05;;;;;;;46.53;11.38;;;;;;;-144.73;100.00;54463.13;5001886;28;20121;-74
2023/07/02 06:13:31;;;;;;;55.50;11.38;;;;;;;-144.73;100.00;54489.81;5004568;28;20100;-73
2023/07/02 06:15:57;;;;;;;42.00;11.95;;;;;;;-144.73;100.00;54461.06;5009889;28;20704;-73
2023/07/02 06:18:22;;;;;;;38.85;10.75;;;;;;;-144.73;100.00;54444.66;5008297;28;20029;-73
2023/07/02 06:20:47;;;;;;;46.72;11.40;;;;;;;-144.73;100.00;54504.16;5034633;28;20033;-74
2023/07/02 06:23:13;;;;;;;46.75;10.85;;;;;;;-144.73;100.00;54502.13;5012252;28;20035;-74
2023/07/02 06:25:38;;;;;;;42.00;10.35;;;;;;;-144.73;100.00;54448.75;5021300;28;20021;-74
2023/07/02 06:28:03;;;;;;;33.72;10.30;;;;;;;-144.73;100.00;54469.28;5029530;28;20037;-74
2023/07/02 06:30:29;;;;;;;53.05;10.55;;;;;;;-144.73;100.00;54456.97;5027070;28;20548;-74
2023/07/02 06:32:55;;;;;;;42.95;10.90;;;;;;;-144.73;100.00;54506.22;5011843;28;20025;-74
2023/07/02 06:35:20;;;;;;;48.85;12.63;;;;;;;-144.73;100.00;54469.28;5025662;28;20056;-74
2023/07/02 06:37:46;;;;;;;52.67;11.85;;;;;;;-144.73;100.00;54512.38;5029513;28;20033;-73
2023/07/02 06:40:12;;;;;;;37.67;12.23;;;;;;;-144.73;100.00;54473.38;5010638;28;20204;-74
2023/07/02 06:42:37;;;;;;;39.38;12.00;;;;;;;-144.73;100.00;54489.81;5010747;28;20486;-73
2023/07/02 06:45:04;;;;;;;37.25;10.52;;;;;;;-144.73;100.00;54473.38;5015056;28;20029;-74
2023/07/02 06:47:29;;;;;;;37.83;9.50;;;;;;;-144.73;100.00;54485.69;5011426;28;20014;-74
2023/07/02 06:49:55;;;;;;;52.08;11.85;;;;;;;-144.73;100.00;54604.75;5011249;28;20044;-73
2023/07/02 06:52:20;;;;;;;37.83;11.48;;;;;;;-144.73;100.00;54518.53;5009672;28;20053;-74
2023/07/02 06:54:46;;;;;;;46.28;11.48;;;;;;;-144.73;100.00;54508.28;5012166;28;20038;-73
2023/07/02 06:57:13;;;;;;;46.22;11.48;;;;;;;-144.73;100.00;54493.91;5017487;28;20037;-74
2023/07/02 06:59:38;;;;;;;42.63;11.07;;;;;;;-144.73;100.00;54485.69;5012949;28;20022;-73
2023/07/02 07:02:04;;;;;;;45.22;11.27;;;;;;;-144.73;100.00;54493.91;5011779;28;20048;-72
2023/07/02 07:04:29;;;;;;;40.00;10.32;;;;;;;-144.73;100.00;54461.06;5011983;28;20064;-71
2023/07/02 07:06:57;;;;;;;48.67;13.43;;;;;;;-144.73;100.00;54485.69;5028213;28;20028;-71
2023/07/02 07:09:22;;;;;;;39.28;10.65;;;;;;;-144.73;100.00;54498.00;5011114;28;20041;-72
2023/07/02 07:11:48;;;;;;;40.70;11.85;;;;;;;-144.73;100.00;54518.53;5009982;28;20557;-72
2023/07/02 07:14:14;;;;;;;43.97;12.63;;;;;;;-144.73;100.00;54444.66;5009605;28;20421;-72
2023/07/02 07:16:39;;;;;;;52.15;12.00;;;;;;;-144.73;100.00;54502.13;5014453;28;20040;-72
2023/07/02 07:19:05;;;;;;;45.35;11.88;;;;;;;-144.73;100.00;54514.44;5017190;28;20056;-72
2023/07/02 07:21:30;;;;;;;43.45;11.77;;;;;;;-144.73;100.00;54495.97;5014688;28;20506;-72
2023/07/02 07:23:56;;;;;;;38.65;11.00;;;;;;;-144.73;100.00;54526.75;5018144;28;20045;-71
2023/07/02 07:26:21;;;;;;;40.38;11.13;;;;;;;-144.73;100.00;54452.84;5027578;28;20038;-74
2023/07/02 07:28:46;;;;;;;40.08;10.82;;;;;;;-144.73;100.00;54481.59;5030186;28;20025;-72
2023/07/02 07:31:12;;;;;;;37.20;10.43;;;;;;;-144.73;100.00;54502.13;5016061;28;20045;-71
2023/07/02 07:33:38;;;;;;;50.75;12.82;;;;;;;-144.73;100.00;54539.06;5016218;28;20159;-71
2023/07/02 07:36:04;;;;;;;41.00;10.85;;;;;;;-144.73;100.00;54481.59;5031938;28;20080;-71
2023/07/02 07:38:29;;;;;;;37.42;11.02;;;;;;;-144.73;100.00;54481.59;5019411;28;20029;-71
2023/07/02 07:40:54;;;;;;;41.15;11.82;;;;;;;-144.73;100.00;54461.06;5013853;28;20037;-71
2023/07/02 07:43:20;;;;;;;32.42;10.45;;;;;;;-144.73;98.63;54493.91;5005615;28;20025;-71
2023/07/02 07:45:45;;;;;;;35.88;10.30;;;;;;;-144.73;98.37;54481.59;5018986;28;20045;-71
2023/07/02 07:48:11;;;;;;;28.55;9.82;;;;;;;-144.73;97.83;54459.00;5004941;28;20494;-71
2023/07/02 07:50:36;;;;;;;34.92;10.63;;;;;;;-144.73;98.17;54506.22;5032108;28;20041;-72
2023/07/02 07:53:02;;;;;;;39.75;10.85;;;;;;;-144.73;94.88;54461.06;5012092;28;20120;-71
2023/07/02 07:55:27;;;;;;;35.38;10.40;;;;;;;-144.73;90.80;54508.28;5003968;28;20042;-71
2023/07/02 07:57:52;;;;;;;34.08;10.85;;;;;;;-144.73;90.78;54524.69;5007618;28;20032;-71
2023/07/02 08:00:18;;;;;;;31.48;9.27;;;;;;;-144.73;90.88;54493.91;5032716;28;20088;-70
2023/07/02 08:02:45;;;;;;;33.53;10.85;;;;;;;-144.73;89.84;54456.97;5008130;28;20056;-70
2023/07/02 08:05:10;;;;;;;35.15;10.13;;;;;;;-144.73;86.03;54446.69;5033262;28;20040;-70
2023/07/02 08:07:36;;;;;;;33.95;9.68;;;;;;;-144.73;85.98;54428.22;5012513;28;20026;-75
2023/07/02 08:10:02;;;;;;;32.85;10.27;;;;;;;-144.73;83.53;54452.84;5015417;28;20037;-73
2023/07/02 08:12:29;;;;;;;37.10;10.45;;;;;;;-144.73;85.25;54407.69;5013852;28;20112;-75
2023/07/02 08:14:55;;;;;;;36.75;10.25;;;;;;;-144.73;83.17;54477.47;5017285;28;20033;-73
2023/07/02 08:17:20;;;;;;;31.10;9.85;;;;;;;-144.73;81.38;54440.53;5012401;28;20021;-74
2023/07/02 08:19:46;;;;;;;30.77;10.38;;;;;;;-144.73;75.29;54467.22;5031420;28;20083;-74
2023/07/02 08:22:12;;;;;;;28.60;9.43;;;;;;;-144.73;75.78;54378.97;5017731;28;20113;-74
2023/07/02 08:24:37;;;;;;;36.25;8.60;;;;;;;-144.73;75.38;54444.66;5019077;28;20057;-74
2023/07/02 08:27:03;;;;;;;29.70;9.35;;;;;;;-144.73;73.96;54489.81;5018512;28;20063;-74
2023/07/02 08:29:30;;;;;;;29.92;10.02;;;;;;;-144.73;71.61;54493.91;5019967;28;20112;-73
2023/07/02 08:31:55;;;;;;;31.35;9.00;;;;;;;-144.73;73.20;54510.31;5018162;28;20067;-74
2023/07/02 08:34:21;;;;;;;37.92;10.25;;;;;;;-144.73;72.62;54473.38;5019548;28;20061;-75
2023/07/02 08:36:46;;;;;;;30.25;9.02;;;;;;;-144.73;72.15;54473.38;5023387;28;20088;-72
2023/07/02 08:39:12;;;;;;;28.42;8.43;;;;;;;-144.73;72.37;54454.91;5035700;28;20081;-72
2023/07/02 08:41:48;;;;;;;25.15;8.18;;;;;;;-144.73;69.53;54420.00;5021168;28;20040;-72
2023/07/02 08:44:14;;;;;;;33.50;9.50;;;;;;;-144.73;66.27;54506.22;5022081;28;20025;-72
2023/07/02 08:46:42;;;;;;;25.33;9.50;;;;;;;-144.73;65.78;54469.28;5021633;28;20036;-74
2023/07/02 08:49:07;;;;;;;35.95;8.20;;;;;;;-144.73;66.43;54461.06;5037989;28;20096;-72
2023/07/02 08:51:33;;;;;;;26.98;8.80;;;;;;;-144.73;64.83;54461.06;5019355;28;20188;-72
2023/07/02 08:53:58;;;;;;;26.15;8.32;;;;;;;-144.73;64.49;54420.00;5019249;28;20034;-72
2023/07/02 08:56:24;;;;;;;23.45;7.45;;;;;;;-144.73;63.02;54440.53;5018840;28;20030;-74
2023/07/02 08:58:49;;;;;;;23.55;8.48;;;;;;;-144.73;62.46;54422.06;5019724;28;20040;-72
2023/07/02 09:01:15;;;;;;;28.42;7.82;;;;;;;-144.73;59.71;54420.00;5020539;28;20072;-72
2023/07/02 09:03:41;;;;;;;27.05;6.53;;;;;;;-144.73;58.29;54452.84;5034133;28;20032;-74
2023/07/02 09:06:08;;;;;;;18.70;7.45;;;;;;;-144.73;59.14;54428.22;5019761;28;20037;-73
2023/07/02 09:08:33;;;;;;;21.15;7.05;;;;;;;-144.73;56.57;54389.22;5035170;28;20033;-72
2023/07/02 09:11:12;;;;;;;27.38;7.60;;;;;;;-144.73;57.25;54424.13;5014593;28;20033;-74
2023/07/02 09:13:48;;;;;;;19.00;6.97;;;;;;;-144.73;55.72;54475.44;5034114;28;20026;-71
2023/07/02 09:16:25;;;;;;;18.98;7.28;;;;;;;-144.73;58.41;54469.28;5032882;28;20033;-72
2023/07/02 09:18:57;;;;;;;22.67;6.85;;;;;;;-144.73;60.10;54438.50;5017948;28;20124;-72
2023/07/02 09:21:22;;;;;;;;;;;;;;;-144.73;60.64;54438.50;5026320;28;20191;-74
2023/07/02 09:23:48;;;;;;;26.58;7.13;;;;;;;-144.73;64.65;54436.44;5016117;28;20343;-72
2023/07/02 09:26:23;;;;;;;29.77;7.72;;;;;;;-144.73;65.15;54473.38;5038243;28;20025;-72
2023/07/02 09:28:49;;;;;;;27.45;7.85;;;;;;;-144.73;70.44;54481.59;5004755;28;20083;-71
2023/07/02 09:31:14;;;;;;;31.10;7.68;;;;;;;-144.73;81.39;54477.47;5006451;28;20121;-73
2023/07/02 09:33:39;;;;;;;27.00;7.07;;;;;;;-144.73;86.00;54456.97;5003723;28;20038;-72
2023/07/02 09:36:05;;;;;;;16.98;6.22;;;;;;;-144.73;94.15;54485.69;4993711;28;20038;-72
2023/07/02 09:38:30;;;;;;;31.38;8.93;;;;;;;-144.73;100.00;54428.22;5036339;28;20028;-72
2023/07/02 09:40:56;;;;;;;26.40;7.22;;;;;;;-144.73;100.00;54473.38;5022724;28;20047;-73
2023/07/02 09:43:23;;;;;;;27.00;8.48;;;;;;;-144.73;100.00;54485.69;5022555;28;20025;-71
2023/07/02 09:45:51;;;;;;;29.20;8.02;;;;;;;-144.73;100.00;54485.69;5036268;28;20105;-71
2023/07/02 09:48:17;;;;;;;27.75;7.93;;;;;;;-144.73;100.00;54436.44;5021007;28;20033;-72
2023/07/02 09:50:44;;;;;;;28.20;9.50;;;;;;;-144.73;100.00;54409.75;5018500;28;20058;-71
2023/07/02 09:53:10;;;;;;;22.38;7.10;;;;;;;-144.73;100.00;54473.38;5023962;28;20020;-71
2023/07/02 09:55:37;;;;;;;28.17;7.45;;;;;;;-144.73;100.00;54465.16;5039097;28;20033;-73
2023/07/02 09:58:03;;;;;;;30.33;7.63;;;;;;;-144.73;100.00;54465.16;5039067;28;20090;-71
2023/07/02 10:00:28;;;;;;;32.05;7.88;;;;;;;-144.73;100.00;54506.22;5009761;28;20030;-72
2023/07/02 10:02:54;;;;;;;29.02;7.32;;;;;;;-144.73;94.23;54440.53;5017562;28;20063;-72
2023/07/02 10:05:45;;;;;;;25.10;7.32;;;;;;;-144.73;80.79;54399.50;5019187;28;20037;-72
2023/07/02 10:08:13;;;;;;;25.60;6.13;;;;;;;-144.73;71.81;54456.97;5016348;28;20037;-71
2023/07/02 10:10:39;;;;;;;20.75;6.13;;;;;;;-144.73;70.44;54428.22;5019772;28;20061;-71
2023/07/02 10:13:05;;;;;;;19.55;6.35;;;;;;;-144.73;66.16;54411.81;5019213;28;20063;-71
2023/07/02 10:15:31;;;;;;;21.15;6.05;;;;;;;-144.73;64.76;54436.44;5035426;28;20116;-71
2023/07/02 10:17:58;;;;;;;24.73;6.00;;;;;;;-144.73;63.73;54407.69;5036895;28;20097;-73
2023/07/02 10:20:40;;;;;;;17.35;5.78;;;;;;;-144.73;61.66;54407.69;5012873;28;20038;-72
2023/07/02 10:23:07;;;;;;;20.73;5.97;;;;;;;-144.73;60.58;54465.16;5022643;28;20024;-72
2023/07/02 10:25:38;;;;;;;20.40;5.97;;;;;;;-144.73;62.94;54426.16;5037150;28;20066;-72
2023/07/02 10:28:24;;;;;;;20.02;6.03;;;;;;;-144.73;61.93;54387.19;5019826;28;20037;-72
2023/07/02 10:30:49;;;;;;;20.23;6.60;;;;;;;-144.73;61.83;54378.97;5034676;28;20065;-72
2023/07/02 10:33:18;;;;;;;19.13;6.10;;;;;;;-144.73;62.81;54502.13;5019181;28;20474;-72
2023/07/02 10:35:47;;;;;;;22.30;6.47;;;;;;;-144.73;62.68;54440.53;5021852;28;20080;-73
2023/07/02 10:38:26;;;;;;;16.75;5.57;;;;;;;-144.73;62.92;54469.28;5029391;28;20385;-72
2023/07/02 10:41:00;;;;;;;16.15;6.20;;;;;;;-144.73;64.48;54452.84;5032290;28;20033;-71
2023/07/02 10:43:30;;;;;;;34.63;6.47;;;;;;;-144.73;65.60;54452.84;5031722;28;20025;-74
2023/07/02 10:45:56;;;;;;;18.50;5.78;;;;;;;-144.73;67.95;54454.91;5009858;28;20033;-71
2023/07/02 10:48:22;;;;;;;17.13;5.90;;;;;;;-144.73;68.35;54420.00;5000066;28;20560;-71
2023/07/02 10:50:47;;;;;;;23.48;6.35;;;;;;;-144.73;68.93;54469.28;5027324;28;20037;-71
2023/07/02 10:53:17;;;;;;;33.17;7.50;;;;;;;-144.73;70.20;54407.69;5012585;28;20167;-71
2023/07/02 10:55:43;;;;;;;24.55;6.30;;;;;;;-144.73;71.52;54452.84;5028562;28;20037;-72
2023/07/02 10:58:09;;;;;;;22.67;5.57;;;;;;;-144.73;73.01;54456.97;5012667;28;20079;-72